Time;durP1;ratioP1;P1;durP2;ratioP2;P2;SDS_P1;SDS_P2;PMS_P1;PMS_P2;Temp;Humidity;BMP_temperature;BMP_pressure;BME280_temperature;BME280_humidity;BME280_pressure;Samples;Min_cycle;Max_cycle;Signal;HPM_P1;HPM_P2
2023/07/25 00:01:09;;;;;;;8.27;4.20;;;14.60;99.90;;;;;;5023621;28;20171;-81
2023/07/25 00:03:35;;;;;;;8.32;3.92;;;14.60;99.90;;;;;;5024592;28;20229;-81
2023/07/25 00:06:03;;;;;;;5.78;4.15;;;14.60;99.90;;;;;;5042186;28;20179;-81
2023/07/25 00:08:29;;;;;;;5.00;3.50;;;14.50;99.90;;;;;;5042287;28;20175;-81
2023/07/25 00:10:55;;;;;;;11.77;4.50;;;14.50;99.90;;;;;;5024547;28;20179;-81
2023/07/25 00:13:21;;;;;;;5.28;3.80;;;14.50;99.90;;;;;;5024848;28;20211;-81
2023/07/25 00:15:46;;;;;;;7.22;4.03;;;14.40;99.90;;;;;;5024188;28;20210;-82
2023/07/25 00:18:12;;;;;;;9.60;3.95;;;14.40;99.90;;;;;;5023922;28;20175;-82
2023/07/25 00:20:38;;;;;;;9.32;5.22;;;14.50;99.90;;;;;;5023898;28;20183;-82
2023/07/25 00:23:04;;;;;;;10.75;4.43;;;14.50;99.90;;;;;;5023841;28;20627;-82
2023/07/25 00:25:29;;;;;;;11.65;4.60;;;14.50;99.90;;;;;;5024489;28;20187;-82
2023/07/25 00:27:55;;;;;;;9.20;5.15;;;14.50;99.90;;;;;;5023887;28;20277;-82
2023/07/25 00:30:21;;;;;;;10.15;4.57;;;14.40;99.90;;;;;;5023083;28;20183;-82
2023/07/25 00:32:46;;;;;;;10.10;5.40;;;14.40;99.90;;;;;;5021924;28;20214;-82
2023/07/25 00:35:12;;;;;;;10.50;5.70;;;14.40;99.90;;;;;;5039165;28;20205;-81
2023/07/25 00:37:38;;;;;;;9.57;5.30;;;14.40;99.90;;;;;;5023209;28;20632;-81
2023/07/25 00:40:04;;;;;;;10.32;6.22;;;14.30;99.90;;;;;;5022611;28;20171;-81
2023/07/25 00:42:30;;;;;;;7.10;4.80;;;14.30;99.90;;;;;;5023495;28;20242;-81
2023/07/25 00:44:56;;;;;;;9.88;5.25;;;14.50;99.90;;;;;;5022889;28;20183;-81
2023/07/25 00:47:22;;;;;;;6.85;5.22;;;14.40;99.90;;;;;;5022265;28;20186;-81
2023/07/25 00:49:49;;;;;;;6.30;4.40;;;14.40;99.90;;;;;;5039501;28;20185;-81
2023/07/25 00:52:16;;;;;;;11.30;4.90;;;14.40;99.90;;;;;;5022072;28;20613;-81
2023/07/25 00:54:48;;;;;;;7.00;4.45;;;14.40;99.90;;;;;;5022627;28;20195;-81
2023/07/25 00:57:16;;;;;;;6.75;4.57;;;14.40;99.90;;;;;;5022263;28;20174;-81
2023/07/25 00:59:42;;;;;;;8.75;5.05;;;14.40;99.90;;;;;;5022063;28;20643;-81
2023/07/25 01:02:09;;;;;;;10.85;5.18;;;14.40;99.90;;;;;;5022132;28;20555;-81
2023/07/25 01:04:37;;;;;;;9.20;5.43;;;14.40;99.90;;;;;;5039184;28;20175;-81
2023/07/25 01:07:04;;;;;;;9.30;5.78;;;14.40;99.90;;;;;;5021854;28;20198;-81
2023/07/25 01:09:35;;;;;;;9.45;5.28;;;14.40;99.90;;;;;;5021442;28;20183;-81
2023/07/25 01:12:02;;;;;;;8.73;5.00;;;14.40;99.90;;;;;;5038800;28;20211;-81
2023/07/25 01:14:30;;;;;;;10.95;5.38;;;14.30;99.90;;;;;;5020559;28;20182;-81
2023/07/25 01:16:57;;;;;;;9.35;5.22;;;14.30;99.90;;;;;;5020278;28;20183;-81
2023/07/25 01:19:29;;;;;;;7.70;4.97;;;14.30;99.90;;;;;;5020349;28;20308;-81
2023/07/25 01:21:56;;;;;;;8.15;5.07;;;14.20;99.90;;;;;;5020151;28;20298;-81
2023/07/25 01:24:22;;;;;;;10.32;4.80;;;14.20;99.90;;;;;;5038037;28;20539;-81
2023/07/25 01:26:47;;;;;;;10.85;5.68;;;14.20;99.90;;;;;;5019616;28;20179;-81
2023/07/25 01:29:13;;;;;;;9.98;5.55;;;14.20;99.90;;;;;;5023970;28;20175;-81
2023/07/25 01:31:39;;;;;;;12.23;5.60;;;14.30;99.90;;;;;;5023523;28;20207;-82
2023/07/25 01:34:04;;;;;;;8.32;5.13;;;14.30;99.90;;;;;;5023348;28;20258;-81
2023/07/25 01:36:30;;;;;;;10.57;5.30;;;14.30;99.90;;;;;;5023534;28;20199;-81
2023/07/25 01:38:56;;;;;;;12.48;5.93;;;14.30;99.90;;;;;;5041427;28;20179;-81
2023/07/25 01:41:22;;;;;;;12.70;5.68;;;14.30;99.90;;;;;;5023012;28;20186;-81
2023/07/25 01:43:47;;;;;;;8.77;5.28;;;14.40;99.90;;;;;;5040592;28;20187;-81
2023/07/25 01:46:13;;;;;;;9.35;5.82;;;14.40;99.90;;;;;;5022262;28;20236;-82
2023/07/25 01:48:39;;;;;;;9.80;5.57;;;14.50;99.90;;;;;;5022067;28;20636;-81
2023/07/25 01:51:04;;;;;;;8.70;5.20;;;14.50;99.90;;;;;;5022750;28;20233;-81
2023/07/25 01:53:30;;;;;;;12.60;5.43;;;14.40;99.90;;;;;;5002428;28;20207;-81
2023/07/25 01:55:56;;;;;;;9.05;5.70;;;14.40;99.90;;;;;;5003356;28;20208;-81
2023/07/25 01:58:22;;;;;;;8.55;5.35;;;14.40;99.90;;;;;;5020781;28;20172;-81
2023/07/25 02:00:47;;;;;;;11.48;5.70;;;14.30;99.90;;;;;;5002934;28;20663;-81
2023/07/25 02:03:15;;;;;;;6.03;4.78;;;14.30;99.90;;;;;;5002960;28;20210;-81
2023/07/25 02:05:41;;;;;;;10.10;5.43;;;14.30;99.90;;;;;;5002473;28;20183;-81
2023/07/25 02:08:09;;;;;;;12.65;5.85;;;14.30;99.90;;;;;;5002877;28;20242;-81
2023/07/25 02:10:35;;;;;;;8.43;5.53;;;14.30;99.90;;;;;;5001700;28;20183;-81
2023/07/25 02:13:01;;;;;;;7.85;5.30;;;14.30;99.90;;;;;;5020353;28;20254;-81
2023/07/25 02:15:26;;;;;;;9.23;5.70;;;14.30;99.90;;;;;;5019968;28;20200;-81
2023/07/25 02:17:53;;;;;;;9.52;5.30;;;14.20;99.90;;;;;;5021305;28;20183;-81
2023/07/25 02:20:21;;;;;;;14.88;6.30;;;14.20;99.90;;;;;;5021086;28;20202;-81
2023/07/25 02:22:46;;;;;;;13.25;6.47;;;14.10;99.90;;;;;;5033624;28;20198;-81
2023/07/25 02:25:12;;;;;;;13.10;6.40;;;14.10;99.90;;;;;;5040055;28;20175;-82
2023/07/25 02:27:38;;;;;;;14.88;5.60;;;14.10;99.90;;;;;;5021602;28;20179;-81
2023/07/25 02:30:04;;;;;;;12.27;5.93;;;14.10;99.90;;;;;;5021416;28;20176;-81
2023/07/25 02:32:29;;;;;;;11.73;6.40;;;14.20;99.90;;;;;;5021797;28;20253;-81
2023/07/25 02:34:55;;;;;;;9.13;6.22;;;14.20;99.90;;;;;;5021906;28;20572;-81
2023/07/25 02:37:21;;;;;;;11.00;5.90;;;14.20;99.90;;;;;;5020880;28;20175;-81
2023/07/25 02:39:46;;;;;;;11.60;5.72;;;14.20;99.90;;;;;;5038532;28;20172;-81
2023/07/25 02:42:12;;;;;;;13.30;5.82;;;14.20;99.90;;;;;;5022473;28;20206;-81
2023/07/25 02:44:38;;;;;;;12.82;6.15;;;14.20;99.90;;;;;;5041296;28;20174;-81
2023/07/25 02:47:04;;;;;;;9.38;4.85;;;14.20;99.90;;;;;;5021769;28;20176;-82
2023/07/25 02:49:30;;;;;;;12.68;6.13;;;14.20;99.90;;;;;;5019679;28;20262;-82
2023/07/25 02:51:56;;;;;;;15.18;5.68;;;14.20;99.90;;;;;;5020047;28;20226;-82
2023/07/25 02:54:21;;;;;;;16.05;6.07;;;14.30;99.90;;;;;;5019417;28;20210;-82
2023/07/25 02:56:47;;;;;;;9.93;5.75;;;14.40;99.90;;;;;;5019359;28;20187;-82
2023/07/25 02:59:13;;;;;;;9.65;5.93;;;14.40;99.90;;;;;;5020012;28;20221;-83
2023/07/25 03:01:39;;;;;;;13.73;6.15;;;14.40;99.90;;;;;;5037929;28;20258;-83
2023/07/25 03:04:04;;;;;;;8.68;5.53;;;14.40;99.90;;;;;;5020172;28;20632;-83
2023/07/25 03:06:30;;;;;;;12.40;5.82;;;14.40;99.90;;;;;;5020338;28;20189;-83
2023/07/25 03:08:56;;;;;;;10.85;6.10;;;14.40;99.90;;;;;;5021558;28;20640;-83
2023/07/25 03:11:22;;;;;;;11.30;5.50;;;14.50;99.90;;;;;;5020642;28;20183;-83
2023/07/25 03:13:47;;;;;;;12.93;5.93;;;14.50;99.90;;;;;;5020329;28;20210;-83
2023/07/25 03:16:13;;;;;;;13.13;6.22;;;14.50;99.90;;;;;;5021188;28;20207;-82
2023/07/25 03:18:39;;;;;;;11.73;6.28;;;14.50;99.90;;;;;;5021002;28;20651;-82
2023/07/25 03:21:04;;;;;;;15.48;6.60;;;14.40;99.90;;;;;;5020186;28;20183;-83
2023/07/25 03:23:30;;;;;;;12.98;5.95;;;14.30;99.90;;;;;;5019769;28;20203;-82
2023/07/25 03:25:56;;;;;;;10.57;6.40;;;14.30;99.90;;;;;;5019863;28;20182;-82
2023/07/25 03:28:22;;;;;;;9.38;6.15;;;14.30;99.90;;;;;;5037877;28;20193;-82
2023/07/25 03:30:47;;;;;;;11.45;6.70;;;14.30;99.90;;;;;;5019654;28;20237;-82
2023/07/25 03:33:13;;;;;;;11.73;6.18;;;14.20;99.90;;;;;;5019715;28;20290;-82
2023/07/25 03:35:39;;;;;;;7.93;4.93;;;14.20;99.90;;;;;;5019432;28;20231;-82
2023/07/25 03:38:05;;;;;;;17.70;6.95;;;14.30;99.90;;;;;;5019471;28;20266;-82
2023/07/25 03:40:30;;;;;;;14.18;5.38;;;14.20;99.90;;;;;;5017897;28;20178;-78
2023/07/25 03:42:56;;;;;;;12.32;5.97;;;14.20;99.90;;;;;;5034248;28;20240;-79
2023/07/25 03:45:22;;;;;;;13.50;5.90;;;14.20;99.90;;;;;;5016514;28;20207;-78
2023/07/25 03:47:47;;;;;;;9.25;5.65;;;14.20;99.90;;;;;;5017141;28;20175;-79
2023/07/25 03:50:13;;;;;;;10.88;6.00;;;14.20;99.90;;;;;;5034642;28;20541;-79
2023/07/25 03:52:39;;;;;;;9.55;5.15;;;14.10;99.90;;;;;;5034655;28;20616;-79
2023/07/25 03:55:06;;;;;;;9.63;6.10;;;14.10;99.90;;;;;;5034731;28;20576;-79
2023/07/25 03:57:31;;;;;;;9.30;5.70;;;14.00;99.90;;;;;;5017658;28;20178;-79
2023/07/25 03:59:57;;;;;;;11.18;5.72;;;14.00;99.90;;;;;;5035107;28;20168;-79
2023/07/25 04:02:23;;;;;;;9.43;5.32;;;14.00;99.90;;;;;;5016546;28;20202;-79
2023/07/25 04:04:48;;;;;;;9.30;5.95;;;14.00;99.90;;;;;;5017054;28;20187;-79
2023/07/25 04:07:14;;;;;;;12.52;6.00;;;13.90;99.90;;;;;;5017232;28;20226;-79
2023/07/25 04:09:40;;;;;;;6.75;5.22;;;13.90;99.90;;;;;;5016481;28;20531;-79
2023/07/25 04:12:06;;;;;;;11.23;5.20;;;13.90;99.90;;;;;;5016494;28;20214;-79
2023/07/25 04:14:33;;;;;;;15.10;5.95;;;13.80;99.90;;;;;;5035531;28;20203;-79
2023/07/25 04:16:59;;;;;;;8.27;4.97;;;13.80;99.90;;;;;;5037488;28;20283;-78
2023/07/25 04:19:25;;;;;;;9.85;5.45;;;13.80;99.90;;;;;;5020507;28;20655;-78
2023/07/25 04:21:50;;;;;;;14.05;5.40;;;13.80;99.90;;;;;;5038524;28;20202;-79
2023/07/25 04:24:16;;;;;;;12.68;5.40;;;13.80;99.90;;;;;;5020912;28;20179;-78
2023/07/25 04:26:42;;;;;;;9.10;5.00;;;13.80;99.90;;;;;;5038269;28;20206;-78
2023/07/25 04:29:08;;;;;;;12.35;5.85;;;13.80;99.90;;;;;;5019889;28;20181;-78
2023/07/25 04:31:33;;;;;;;8.93;5.53;;;13.80;99.90;;;;;;5020564;28;20175;-79
2023/07/25 04:33:59;;;;;;;11.20;5.50;;;13.80;99.90;;;;;;5037959;28;20179;-78
2023/07/25 04:36:28;;;;;;;11.88;5.78;;;13.90;99.90;;;;;;5019764;28;20718;-78
2023/07/25 04:38:55;;;;;;;9.85;5.45;;;13.90;99.90;;;;;;5020118;28;20203;-78
2023/07/25 04:41:21;;;;;;;13.20;5.65;;;13.90;99.90;;;;;;5020178;28;20265;-78
2023/07/25 04:43:46;;;;;;;9.57;5.68;;;13.80;99.90;;;;;;5037732;28;20227;-78
2023/07/25 04:46:12;;;;;;;10.07;5.93;;;13.90;99.90;;;;;;5020464;28;20231;-78
2023/07/25 04:48:38;;;;;;;10.27;5.03;;;13.90;99.90;;;;;;5038242;28;20167;-78
2023/07/25 04:51:03;;;;;;;8.88;5.70;;;13.90;99.90;;;;;;5037653;28;20209;-78
2023/07/25 04:53:29;;;;;;;7.93;6.20;;;13.90;99.90;;;;;;5038147;28;20298;-78
2023/07/25 04:55:55;;;;;;;10.63;6.22;;;13.80;99.90;;;;;;5038330;28;20194;-78
2023/07/25 04:58:21;;;;;;;13.38;5.88;;;13.90;99.90;;;;;;5019726;28;20225;-77
2023/07/25 05:00:47;;;;;;;8.75;5.57;;;13.90;99.90;;;;;;5020585;28;20183;-78
2023/07/25 05:03:13;;;;;;;8.07;6.18;;;13.90;99.90;;;;;;5039007;28;20199;-77
2023/07/25 05:05:38;;;;;;;12.48;6.18;;;14.00;99.90;;;;;;5037807;28;20175;-77
2023/07/25 05:08:04;;;;;;;10.48;5.88;;;14.00;99.90;;;;;;5019656;28;20186;-77
2023/07/25 05:10:31;;;;;;;10.52;6.45;;;14.10;99.90;;;;;;5019526;28;20183;-78
2023/07/25 05:12:57;;;;;;;12.52;6.40;;;14.00;99.90;;;;;;5037096;28;20293;-78
2023/07/25 05:15:23;;;;;;;10.25;6.55;;;14.00;99.90;;;;;;5019221;28;20202;-78
2023/07/25 05:17:49;;;;;;;14.57;7.32;;;14.10;99.90;;;;;;5036787;28;20520;-78
2023/07/25 05:20:15;;;;;;;16.63;8.25;;;14.00;99.90;;;;;;5036750;28;20226;-78
2023/07/25 05:22:41;;;;;;;15.63;7.55;;;14.10;99.90;;;;;;5018829;28;20203;-78
2023/07/25 05:25:07;;;;;;;11.80;8.50;;;14.10;99.90;;;;;;5018799;28;20226;-78
2023/07/25 05:27:33;;;;;;;13.68;7.65;;;14.10;99.90;;;;;;5037071;28;20190;-77
2023/07/25 05:29:58;;;;;;;15.02;8.25;;;14.10;99.90;;;;;;5036855;28;20183;-78
2023/07/25 05:32:24;;;;;;;14.65;7.32;;;14.00;99.90;;;;;;5018686;28;20202;-78
2023/07/25 05:34:50;;;;;;;13.85;7.57;;;14.00;99.90;;;;;;5037362;28;20257;-78
2023/07/25 05:37:19;;;;;;;15.73;8.05;;;14.00;99.90;;;;;;5018756;28;20172;-78
2023/07/25 05:39:45;;;;;;;13.30;8.23;;;14.00;99.90;;;;;;5018723;28;20181;-78
2023/07/25 05:42:10;;;;;;;15.90;8.23;;;14.00;99.90;;;;;;5018686;28;20191;-78
2023/07/25 05:44:36;;;;;;;13.05;7.75;;;14.00;99.90;;;;;;5037249;28;20167;-77
2023/07/25 05:47:02;;;;;;;15.38;7.10;;;14.10;99.90;;;;;;5037508;28;20175;-78
2023/07/25 05:49:28;;;;;;;23.25;9.45;;;14.10;99.90;;;;;;5019725;28;20179;-78
2023/07/25 05:51:54;;;;;;;15.25;8.27;;;14.10;99.90;;;;;;5037159;28;20205;-78
2023/07/25 05:54:20;;;;;;;16.80;9.52;;;14.20;99.90;;;;;;5037613;28;20202;-78
2023/07/25 05:56:46;;;;;;;21.05;9.52;;;14.30;99.90;;;;;;5036740;28;20199;-77
2023/07/25 05:59:12;;;;;;;19.13;9.88;;;14.30;99.90;;;;;;5037528;28;20167;-78
2023/07/25 06:01:41;;;;;;;14.68;9.70;;;14.40;99.90;;;;;;5019776;28;20171;-78
2023/07/25 06:04:07;;;;;;;14.35;8.85;;;14.40;99.90;;;;;;5036729;28;20175;-78
2023/07/25 06:06:33;;;;;;;16.20;9.35;;;14.50;99.90;;;;;;5036957;28;20172;-78
2023/07/25 06:08:59;;;;;;;17.52;8.95;;;14.60;99.90;;;;;;5036395;28;20171;-78
2023/07/25 06:11:28;;;;;;;17.55;8.73;;;14.70;99.90;;;;;;5018666;28;20191;-77
2023/07/25 06:13:54;;;;;;;13.80;7.40;;;14.80;99.90;;;;;;5018214;28;20194;-78
2023/07/25 06:16:19;;;;;;;13.68;7.78;;;14.90;99.90;;;;;;5018143;28;20241;-78
2023/07/25 06:18:45;;;;;;;15.63;6.72;;;14.90;99.90;;;;;;5036135;28;20175;-78
2023/07/25 06:21:11;;;;;;;15.20;6.93;;;15.00;99.90;;;;;;5016982;28;20186;-79
2023/07/25 06:23:37;;;;;;;13.07;6.60;;;15.10;99.90;;;;;;5016983;28;20195;-78
2023/07/25 06:26:03;;;;;;;16.27;8.05;;;15.20;99.90;;;;;;5017566;28;20552;-78
2023/07/25 06:28:29;;;;;;;16.48;7.93;;;15.20;99.90;;;;;;5017638;28;20646;-78
2023/07/25 06:30:54;;;;;;;17.17;7.47;;;15.30;99.90;;;;;;5035281;28;20250;-77
2023/07/25 06:33:20;;;;;;;12.82;6.07;;;15.50;99.90;;;;;;5017305;28;20202;-78
2023/07/25 06:35:46;;;;;;;14.90;7.15;;;15.50;99.90;;;;;;5018070;28;20211;-78
2023/07/25 06:38:12;;;;;;;13.30;6.63;;;15.70;99.90;;;;;;5017080;28;20172;-78
2023/07/25 06:40:37;;;;;;;13.68;6.60;;;15.80;99.90;;;;;;5034900;28;20171;-78
2023/07/25 06:43:03;;;;;;;10.00;4.70;;;15.90;99.90;;;;;;5016794;28;20631;-78
2023/07/25 06:45:29;;;;;;;13.27;5.50;;;16.10;99.90;;;;;;5017321;28;20239;-77
2023/07/25 06:47:55;;;;;;;14.93;5.10;;;16.10;99.90;;;;;;5034358;28;20174;-78
2023/07/25 06:50:21;;;;;;;12.63;4.75;;;16.20;99.90;;;;;;5016575;28;20181;-78
2023/07/25 06:52:46;;;;;;;12.15;4.78;;;16.20;99.90;;;;;;5034628;28;20249;-78
2023/07/25 06:55:12;;;;;;;11.60;4.10;;;16.20;99.90;;;;;;5034359;28;20203;-77
2023/07/25 06:57:38;;;;;;;14.73;4.38;;;16.00;99.90;;;;;;5016565;28;20175;-77
2023/07/25 07:00:04;;;;;;;17.15;4.68;;;16.00;99.90;;;;;;5016705;28;20265;-77
2023/07/25 07:02:30;;;;;;;8.10;4.38;;;16.00;99.90;;;;;;5034173;28;20278;-77
2023/07/25 07:04:56;;;;;;;16.65;4.22;;;16.00;99.90;;;;;;5034943;28;20624;-77
2023/07/25 07:07:22;;;;;;;9.98;4.25;;;16.10;99.90;;;;;;5016689;28;20228;-77
2023/07/25 07:09:48;;;;;;;9.98;4.85;;;16.00;99.90;;;;;;5034253;28;20179;-77
2023/07/25 07:12:16;;;;;;;7.53;4.18;;;16.00;99.90;;;;;;5016416;28;20754;-78
2023/07/25 07:14:41;;;;;;;13.05;4.43;;;15.90;99.90;;;;;;5035431;28;20175;-77
2023/07/25 07:17:07;;;;;;;10.00;3.63;;;15.80;99.90;;;;;;5017594;28;20175;-78
2023/07/25 07:19:33;;;;;;;6.65;3.60;;;15.80;99.90;;;;;;5035380;28;20167;-77
2023/07/25 07:21:58;;;;;;;8.73;4.10;;;16.00;99.90;;;;;;5017216;28;20732;-78
2023/07/25 07:24:24;;;;;;;11.27;3.75;;;16.00;99.90;;;;;;5035523;28;20564;-77
2023/07/25 07:26:50;;;;;;;7.68;3.65;;;16.10;99.90;;;;;;5017694;28;20236;-77
2023/07/25 07:29:16;;;;;;;8.68;3.47;;;16.20;99.90;;;;;;5035551;28;20175;-77
2023/07/25 07:31:42;;;;;;;5.75;3.70;;;16.30;99.90;;;;;;5017554;28;20175;-78
2023/07/25 07:34:15;;;;;;;8.77;3.47;;;16.20;99.90;;;;;;5017092;28;20182;-77
2023/07/25 07:36:42;;;;;;;8.95;3.97;;;16.20;99.90;;;;;;5017078;28;20211;-77
2023/07/25 07:39:07;;;;;;;8.02;3.70;;;16.10;99.90;;;;;;5016546;28;20230;-77
2023/07/25 07:41:34;;;;;;;9.63;3.33;;;16.20;99.90;;;;;;5015911;28;20628;-78
2023/07/25 07:44:00;;;;;;;8.55;3.90;;;16.30;99.90;;;;;;5033803;28;20179;-77
2023/07/25 07:46:30;;;;;;;7.38;3.60;;;16.30;99.90;;;;;;5016025;28;20635;-78
2023/07/25 07:48:59;;;;;;;7.72;3.35;;;16.30;99.90;;;;;;5033975;28;20182;-77
2023/07/25 07:51:26;;;;;;;5.63;3.35;;;16.20;99.90;;;;;;5019504;28;20640;-77
2023/07/25 07:53:52;;;;;;;8.43;3.53;;;16.20;99.90;;;;;;5038200;28;20253;-77
2023/07/25 07:56:18;;;;;;;7.50;3.25;;;16.20;99.90;;;;;;5037907;28;20210;-77
2023/07/25 07:58:44;;;;;;;7.55;3.47;;;16.20;99.90;;;;;;5037901;28;20171;-77
2023/07/25 08:01:18;;;;;;;7.40;3.25;;;16.10;99.90;;;;;;5020150;28;20179;-77
2023/07/25 08:03:45;;;;;;;14.27;3.70;;;16.20;99.90;;;;;;5039646;28;20561;-76
2023/07/25 08:06:11;;;;;;;10.10;3.30;;;16.20;99.90;;;;;;5023466;28;20183;-76
2023/07/25 08:08:37;;;;;;;7.90;3.60;;;16.30;99.90;;;;;;5021262;28;20647;-77
2023/07/25 08:11:03;;;;;;;11.80;3.58;;;16.40;99.90;;;;;;5020617;28;20209;-77
2023/07/25 08:13:29;;;;;;;8.70;4.22;;;16.60;99.90;;;;;;5020463;28;20574;-77
2023/07/25 08:15:55;;;;;;;9.27;3.60;;;16.70;99.90;;;;;;5020140;28;20678;-77
2023/07/25 08:18:20;;;;;;;6.80;3.35;;;16.90;99.90;;;;;;5020144;28;20203;-77
2023/07/25 08:20:46;;;;;;;9.35;3.47;;;17.00;88.00;;;;;;5020295;28;20262;-77
2023/07/25 08:23:13;;;;;;;5.70;3.08;;;17.10;99.90;;;;;;5019767;28;20671;-77
2023/07/25 08:25:39;;;;;;;6.30;3.40;;;17.20;56.70;;;;;;5020464;28;20537;-76
2023/07/25 08:28:05;;;;;;;9.27;2.95;;;17.30;50.30;;;;;;5037743;28;20182;-77
2023/07/25 08:30:31;;;;;;;7.15;3.30;;;17.40;96.80;;;;;;5020153;28;20639;-77
2023/07/25 08:32:57;;;;;;;10.68;3.17;;;17.50;25.80;;;;;;5038140;28;20202;-77
2023/07/25 08:35:23;;;;;;;9.45;3.22;;;17.50;1.00;;;;;;5020107;28;20203;-77
2023/07/25 08:37:49;;;;;;;5.40;2.92;;;17.50;88.40;;;;;;5038074;28;20171;-76
2023/07/25 08:40:15;;;;;;;6.13;3.33;;;17.50;99.90;;;;;;5020227;28;20176;-76
2023/07/25 08:42:45;;;;;;;8.32;3.08;;;17.60;99.90;;;;;;5020111;28;20236;-77
2023/07/25 08:45:11;;;;;;;6.10;3.08;;;17.70;20.00;;;;;;5038371;28;20586;-76
2023/07/25 08:47:42;;;;;;;6.43;3.13;;;17.70;1.00;;;;;;5038389;28;20178;-76
2023/07/25 08:50:14;;;;;;;5.32;3.05;;;17.70;99.90;;;;;;5038816;28;20178;-76
2023/07/25 08:52:43;;;;;;;14.05;5.50;;;17.60;99.90;;;;;;5020585;28;20570;-76
2023/07/25 08:55:09;;;;;;;9.70;3.75;;;17.60;94.00;;;;;;5019345;28;20203;-76
2023/07/25 08:57:35;;;;;;;8.48;3.47;;;17.60;99.90;;;;;;5036932;28;20176;-76
2023/07/25 09:00:01;;;;;;;7.45;3.08;;;17.80;99.90;;;;;;5020595;28;20553;-77
2023/07/25 09:02:27;;;;;;;5.50;2.90;;;17.90;99.90;;;;;;5039385;28;20187;-81
2023/07/25 09:04:54;;;;;;;8.05;3.25;;;18.10;99.90;;;;;;5022358;28;20186;-80
2023/07/25 09:07:21;;;;;;;10.95;3.67;;;18.30;1.00;;;;;;5021867;28;20179;-79
2023/07/25 09:09:47;;;;;;;5.82;3.17;;;18.30;1.00;;;;;;5022739;28;20176;-79
2023/07/25 09:12:13;;;;;;;9.57;2.95;;;18.40;1.00;;;;;;5021094;28;20273;-78
2023/07/25 09:14:41;;;;;;;7.95;3.15;;;18.50;1.00;;;;;;5019838;28;20628;-78
2023/07/25 09:17:07;;;;;;;7.32;3.30;;;18.40;1.00;;;;;;5019585;28;20637;-78
2023/07/25 09:19:33;;;;;;;9.95;2.97;;;18.50;1.00;;;;;;5019842;28;20203;-79
2023/07/25 09:22:00;;;;;;;9.60;3.13;;;18.40;99.90;;;;;;5019416;28;20222;-79
2023/07/25 09:24:39;;;;;;;12.48;3.60;;;18.40;1.00;;;;;;5019931;28;20221;-78
2023/07/25 09:27:16;;;;;;;5.97;3.40;;;18.40;1.00;;;;;;5020803;28;20266;-79
2023/07/25 09:29:41;;;;;;;7.88;3.78;;;18.30;1.00;;;;;;5036587;28;20186;-80
2023/07/25 09:32:23;;;;;;;7.30;3.40;;;18.10;99.90;;;;;;5019581;28;20562;-81
2023/07/25 09:34:58;;;;;;;6.50;3.40;;;18.10;1.00;;;;;;5020085;28;20277;-77
2023/07/25 09:37:25;;;;;;;12.80;3.95;;;18.20;1.00;;;;;;5022437;28;20197;-78
2023/07/25 09:39:51;;;;;;;6.10;3.47;;;18.10;99.90;;;;;;5017951;28;20659;-76
2023/07/25 09:42:19;;;;;;;10.20;3.70;;;18.10;1.00;;;;;;5018703;28;20205;-77
2023/07/25 09:44:47;;;;;;;9.07;4.10;;;18.20;1.00;;;;;;5017856;28;20221;-76
2023/07/25 09:47:20;;;;;;;9.35;4.20;;;18.20;1.00;;;;;;5018036;28;20186;-77
2023/07/25 09:49:52;;;;;;;7.82;3.90;;;18.30;1.00;;;;;;5017566;28;20210;-76
2023/07/25 09:52:18;;;;;;;8.20;3.92;;;18.30;1.00;;;;;;5035219;28;20199;-77
2023/07/25 09:54:44;;;;;;;6.47;3.78;;;18.30;1.00;;;;;;5035743;28;20539;-77
2023/07/25 09:57:10;;;;;;;4.90;3.50;;;18.30;1.00;;;;;;5018285;28;20350;-76
2023/07/25 09:59:36;;;;;;;8.18;3.67;;;18.50;1.00;;;;;;5018085;28;20175;-77
2023/07/25 10:02:03;;;;;;;7.00;3.60;;;18.60;99.90;;;;;;5017881;28;20198;-77
2023/07/25 10:04:29;;;;;;;7.30;3.83;;;18.80;99.90;;;;;;5035464;28;20175;-76
2023/07/25 10:06:59;;;;;;;6.25;3.72;;;18.80;1.00;;;;;;5017178;28;20243;-77
2023/07/25 10:09:25;;;;;;;7.22;3.33;;;18.50;1.00;;;;;;5017633;28;20193;-76
2023/07/25 10:11:53;;;;;;;6.13;3.30;;;18.20;1.00;;;;;;5016964;28;20221;-77
2023/07/25 10:14:19;;;;;;;10.10;3.28;;;18.00;1.00;;;;;;5016429;28;20225;-76
2023/07/25 10:16:46;;;;;;;5.88;3.30;;;17.80;23.60;;;;;;5035435;28;20207;-76
2023/07/25 10:19:12;;;;;;;6.43;3.03;;;17.60;1.00;;;;;;5017279;28;20179;-76
2023/07/25 10:21:48;;;;;;;6.45;3.03;;;17.60;16.20;;;;;;5017239;28;20183;-77
2023/07/25 10:24:14;;;;;;;5.68;2.80;;;17.60;21.50;;;;;;5034550;28;20170;-77
2023/07/25 10:26:59;;;;;;;7.22;2.63;;;17.60;1.00;;;;;;5016982;28;20179;-77
2023/07/25 10:29:42;;;;;;;5.47;2.70;;;17.70;1.00;;;;;;5034716;28;20179;-77
2023/07/25 10:32:11;;;;;;;12.95;3.03;;;17.90;1.00;;;;;;5034912;28;20191;-77
2023/07/25 10:35:00;;;;;;;6.90;2.63;;;18.00;1.00;;;;;;5016847;28;20176;-77
2023/07/25 10:37:30;;;;;;;8.45;3.17;;;18.20;1.00;;;;;;5016791;28;20176;-76
2023/07/25 10:40:15;;;;;;;9.35;2.75;;;18.30;1.00;;;;;;5035125;28;20238;-77
2023/07/25 10:42:42;;;;;;;4.38;2.88;;;18.30;1.00;;;;;;5016844;28;20557;-77
2023/07/25 10:45:20;;;;;;;6.55;2.83;;;18.30;1.00;;;;;;5035082;28;20640;-76
2023/07/25 10:47:48;;;;;;;10.07;3.20;;;18.20;1.00;;;;;;5034403;28;20173;-77
2023/07/25 10:50:18;;;;;;;6.90;2.75;;;18.50;1.00;;;;;;5016509;28;20179;-77
2023/07/25 10:52:45;;;;;;;7.30;2.80;;;18.70;1.00;;;;;;5016771;28;20741;-77
2023/07/25 10:55:11;;;;;;;2.80;2.40;;;18.90;1.00;;;;;;5016528;28;20261;-76
2023/07/25 10:57:37;;;;;;;7.63;2.80;;;18.80;99.90;;;;;;5016796;28;20168;-76
2023/07/25 11:00:10;;;;;;;5.13;2.75;;;18.90;1.00;;;;;;5034600;28;20229;-77
2023/07/25 11:02:45;;;;;;;4.15;2.42;;;18.90;1.00;;;;;;5034408;28;20202;-77
2023/07/25 11:05:13;;;;;;;5.18;2.63;;;18.90;99.90;;;;;;5016604;28;20599;-77
2023/07/25 11:07:45;;;;;;;5.40;2.38;;;19.10;1.00;;;;;;5034532;28;20226;-77
2023/07/25 11:10:21;;;;;;;7.18;2.85;;;19.30;1.00;;;;;;5016645;28;20179;-77
2023/07/25 11:12:52;;;;;;;5.60;2.30;;;19.30;1.00;;;;;;5016611;28;20224;-77
2023/07/25 11:15:18;;;;;;;6.10;2.30;;;19.50;1.00;;;;;;5034231;28;20187;-76
2023/07/25 11:17:44;;;;;;;4.75;2.30;;;19.20;99.90;;;;;;5016373;28;20171;-77
2023/07/25 11:20:17;;;;;;;5.72;2.60;;;18.90;1.00;;;;;;5016485;28;20189;-76
2023/07/25 11:22:44;;;;;;;3.83;2.58;;;18.80;1.00;;;;;;5016473;28;20249;-78
2023/07/25 11:25:10;;;;;;;5.00;2.25;;;18.70;99.90;;;;;;5036135;28;20175;-78
2023/07/25 11:27:44;;;;;;;8.13;2.67;;;18.50;19.80;;;;;;5020700;28;20179;-78
2023/07/25 11:30:19;;;;;;;5.68;2.67;;;18.30;99.90;;;;;;5020434;28;20183;-77
2023/07/25 11:32:50;;;;;;;8.10;2.85;;;18.00;1.00;;;;;;5019828;28;20568;-77
2023/07/25 11:35:16;;;;;;;7.35;2.88;;;17.90;1.00;;;;;;5037510;28;20242;-77
2023/07/25 11:37:43;;;;;;;5.15;2.67;;;17.80;1.00;;;;;;5021272;28;20186;-77
2023/07/25 11:40:15;;;;;;;9.82;3.30;;;17.80;1.00;;;;;;5021949;28;20179;-77
2023/07/25 11:42:45;;;;;;;8.45;2.72;;;17.60;1.00;;;;;;5021253;28;20248;-77
2023/07/25 11:45:12;;;;;;;7.90;3.20;;;17.50;1.00;;;;;;5020908;28;20233;-77
2023/07/25 11:47:43;;;;;;;7.53;3.22;;;17.40;15.30;;;;;;5020300;28;20183;-78
2023/07/25 11:50:10;;;;;;;11.50;3.58;;;17.40;51.80;;;;;;5020494;28;20183;-77
2023/07/25 11:52:41;;;;;;;11.10;3.75;;;17.30;91.40;;;;;;5020256;28;20298;-78
2023/07/25 11:55:08;;;;;;;4.22;3.05;;;17.30;94.50;;;;;;5020493;28;20203;-77
2023/07/25 11:57:36;;;;;;;9.23;3.25;;;17.30;99.90;;;;;;5020290;28;20183;-77
2023/07/25 12:00:06;;;;;;;7.75;3.58;;;17.30;98.60;;;;;;5038472;28;20202;-77
2023/07/25 12:02:50;;;;;;;8.32;2.78;;;17.30;76.30;;;;;;5037978;28;20691;-78
2023/07/25 12:05:30;;;;;;;4.80;3.13;;;17.30;8.70;;;;;;5020562;28;20183;-77
2023/07/25 12:08:03;;;;;;;7.07;3.08;;;17.40;1.00;;;;;;5038079;28;20179;-78
2023/07/25 12:10:29;;;;;;;7.72;2.97;;;17.50;1.00;;;;;;5020125;28;20218;-77
2023/07/25 12:12:56;;;;;;;6.35;2.80;;;17.50;20.70;;;;;;5021485;28;20218;-78
2023/07/25 12:15:46;;;;;;;7.10;2.95;;;17.60;1.00;;;;;;5020667;28;20603;-79
2023/07/25 12:18:31;;;;;;;7.00;3.13;;;17.80;1.00;;;;;;5019783;28;20178;-78
2023/07/25 12:20:59;;;;;;;6.18;2.80;;;17.80;1.00;;;;;;5020749;28;20229;-78
2023/07/25 12:23:30;;;;;;;10.82;2.67;;;17.80;1.00;;;;;;5038576;28;20202;-78
2023/07/25 12:25:56;;;;;;;5.57;2.70;;;17.80;1.00;;;;;;5019981;28;20183;-79
2023/07/25 12:28:23;;;;;;;6.50;2.90;;;17.80;1.00;;;;;;5020086;28;20647;-78
2023/07/25 12:30:49;;;;;;;6.32;2.75;;;17.70;1.00;;;;;;5019334;28;20190;-78
2023/07/25 12:33:15;;;;;;;6.53;3.28;;;17.60;1.00;;;;;;5019262;28;20574;-78
2023/07/25 12:35:40;;;;;;;7.75;3.03;;;17.60;1.00;;;;;;5019295;28;20309;-78
2023/07/25 12:38:06;;;;;;;6.95;2.80;;;17.60;1.00;;;;;;5019566;28;20244;-78
2023/07/25 12:40:32;;;;;;;7.97;3.10;;;17.60;1.00;;;;;;5020380;28;20762;-77
2023/07/25 12:42:58;;;;;;;7.95;2.80;;;17.50;1.00;;;;;;5019438;28;20191;-79
2023/07/25 12:45:24;;;;;;;5.32;2.97;;;17.30;1.00;;;;;;5020573;28;20270;-79